sensor_id;sensor_type;location;lat;lon;timestamp;pressure;altitude;pressure_sealevel;temperature;humidity
25722;BME280;13578;53.450;15.496;2022-08-30T00:03:16;100356.00;;;16.47;100.00
25722;BME280;13578;53.450;15.496;2022-08-30T00:06:18;100359.47;;;16.49;100.00
25722;BME280;13578;53.450;15.496;2022-08-30T00:09:19;100371.59;;;16.48;100.00
25722;BME280;13578;53.450;15.496;2022-08-30T00:12:19;100368.44;;;16.43;100.00
25722;BME280;13578;53.450;15.496;2022-08-30T00:15:21;100365.97;;;16.40;100.00
25722;BME280;13578;53.450;15.496;2022-08-30T00:18:22;100373.44;;;16.39;100.00
25722;BME280;13578;53.450;15.496;2022-08-30T00:21:23;100371.53;;;16.40;100.00
25722;BME280;13578;53.450;15.496;2022-08-30T00:24:24;100364.25;;;16.39;100.00
25722;BME280;13578;53.450;15.496;2022-08-30T00:27:26;100367.56;;;16.42;100.00
25722;BME280;13578;53.450;15.496;2022-08-30T00:30:27;100372.94;;;16.44;100.00
25722;BME280;13578;53.450;15.496;2022-08-30T00:33:28;100363.69;;;16.35;100.00
25722;BME280;13578;53.450;15.496;2022-08-30T00:36:29;100365.81;;;16.41;100.00
25722;BME280;13578;53.450;15.496;2022-08-30T00:39:30;100373.56;;;16.38;100.00
25722;BME280;13578;53.450;15.496;2022-08-30T00:42:31;100364.72;;;16.34;100.00
25722;BME280;13578;53.450;15.496;2022-08-30T00:45:35;100376.34;;;16.38;100.00
25722;BME280;13578;53.450;15.496;2022-08-30T00:48:41;100376.34;;;16.38;100.00
25722;BME280;13578;53.450;15.496;2022-08-30T00:51:44;100368.03;;;16.38;100.00
25722;BME280;13578;53.450;15.496;2022-08-30T00:54:45;100373.25;;;16.41;100.00
25722;BME280;13578;53.450;15.496;2022-08-30T00:57:51;100374.13;;;16.41;100.00
25722;BME280;13578;53.450;15.496;2022-08-30T01:00:54;100379.28;;;16.36;100.00
25722;BME280;13578;53.450;15.496;2022-08-30T01:03:57;100376.16;;;16.31;100.00
25722;BME280;13578;53.450;15.496;2022-08-30T01:06:58;100383.97;;;16.35;100.00
25722;BME280;13578;53.450;15.496;2022-08-30T01:10:00;100384.09;;;16.34;100.00
25722;BME280;13578;53.450;15.496;2022-08-30T01:13:02;100390.84;;;16.31;100.00
25722;BME280;13578;53.450;15.496;2022-08-30T01:16:03;100387.88;;;16.25;100.00
25722;BME280;13578;53.450;15.496;2022-08-30T01:19:14;100388.59;;;16.09;100.00
25722;BME280;13578;53.450;15.496;2022-08-30T01:25:24;100396.34;;;16.05;100.00
25722;BME280;13578;53.450;15.496;2022-08-30T01:28:27;100401.66;;;15.98;100.00
25722;BME280;13578;53.450;15.496;2022-08-30T01:31:29;100395.66;;;16.03;100.00
25722;BME280;13578;53.450;15.496;2022-08-30T01:34:30;100402.53;;;15.99;100.00
25722;BME280;13578;53.450;15.496;2022-08-30T01:37:32;100395.88;;;15.92;100.00
25722;BME280;13578;53.450;15.496;2022-08-30T01:40:32;100397.53;;;16.02;100.00
25722;BME280;13578;53.450;15.496;2022-08-30T01:43:33;100402.22;;;16.02;100.00
25722;BME280;13578;53.450;15.496;2022-08-30T01:46:37;100391.44;;;15.99;100.00
25722;BME280;13578;53.450;15.496;2022-08-30T01:49:39;100393.75;;;15.85;100.00
25722;BME280;13578;53.450;15.496;2022-08-30T01:52:41;100405.00;;;15.84;100.00
25722;BME280;13578;53.450;15.496;2022-08-30T01:55:42;100405.53;;;15.87;100.00
25722;BME280;13578;53.450;15.496;2022-08-30T01:58:43;100409.78;;;15.82;100.00
25722;BME280;13578;53.450;15.496;2022-08-30T02:01:44;100409.69;;;15.73;100.00
25722;BME280;13578;53.450;15.496;2022-08-30T02:04:45;100401.22;;;15.75;100.00
25722;BME280;13578;53.450;15.496;2022-08-30T02:07:46;100393.63;;;15.59;100.00
25722;BME280;13578;53.450;15.496;2022-08-30T02:10:47;100393.56;;;15.69;100.00
25722;BME280;13578;53.450;15.496;2022-08-30T02:13:48;100392.31;;;15.63;100.00
25722;BME280;13578;53.450;15.496;2022-08-30T02:16:49;100396.41;;;15.59;100.00
25722;BME280;13578;53.450;15.496;2022-08-30T02:19:49;100401.06;;;15.59;100.00
25722;BME280;13578;53.450;15.496;2022-08-30T02:22:50;100396.00;;;15.54;100.00
25722;BME280;13578;53.450;15.496;2022-08-30T02:25:51;100391.97;;;15.48;100.00
25722;BME280;13578;53.450;15.496;2022-08-30T02:28:52;100399.41;;;15.48;100.00
25722;BME280;13578;53.450;15.496;2022-08-30T02:31:53;100400.66;;;15.53;100.00
25722;BME280;13578;53.450;15.496;2022-08-30T02:34:53;100393.25;;;15.54;100.00
25722;BME280;13578;53.450;15.496;2022-08-30T02:37:54;100391.50;;;15.53;100.00
25722;BME280;13578;53.450;15.496;2022-08-30T02:40:55;100391.41;;;15.45;100.00
25722;BME280;13578;53.450;15.496;2022-08-30T02:43:56;100384.78;;;15.55;100.00
25722;BME280;13578;53.450;15.496;2022-08-30T02:46:58;100385.41;;;15.49;100.00
25722;BME280;13578;53.450;15.496;2022-08-30T02:50:02;100388.00;;;15.51;100.00
25722;BME280;13578;53.450;15.496;2022-08-30T02:53:02;100382.34;;;15.52;100.00
25722;BME280;13578;53.450;15.496;2022-08-30T02:56:03;100383.19;;;15.53;100.00
25722;BME280;13578;53.450;15.496;2022-08-30T02:59:04;100375.06;;;15.51;100.00
25722;BME280;13578;53.450;15.496;2022-08-30T03:02:04;100367.16;;;15.56;100.00
25722;BME280;13578;53.450;15.496;2022-08-30T03:05:06;100373.88;;;15.54;100.00
25722;BME280;13578;53.450;15.496;2022-08-30T03:08:08;100376.09;;;15.50;100.00
25722;BME280;13578;53.450;15.496;2022-08-30T03:11:09;100381.06;;;15.47;100.00
25722;BME280;13578;53.450;15.496;2022-08-30T03:14:09;100380.34;;;15.45;100.00
25722;BME280;13578;53.450;15.496;2022-08-30T03:17:10;100382.63;;;15.49;100.00
25722;BME280;13578;53.450;15.496;2022-08-30T03:20:11;100381.34;;;15.44;100.00
25722;BME280;13578;53.450;15.496;2022-08-30T03:23:12;100369.91;;;15.38;100.00
25722;BME280;13578;53.450;15.496;2022-08-30T03:26:13;100372.13;;;15.35;100.00
25722;BME280;13578;53.450;15.496;2022-08-30T03:29:14;100373.13;;;15.34;100.00
25722;BME280;13578;53.450;15.496;2022-08-30T03:32:15;100391.94;;;15.30;100.00
25722;BME280;13578;53.450;15.496;2022-08-30T03:35:16;100381.88;;;15.29;100.00
25722;BME280;13578;53.450;15.496;2022-08-30T03:38:17;100395.72;;;15.29;100.00
25722;BME280;13578;53.450;15.496;2022-08-30T03:41:18;100402.81;;;15.32;100.00
25722;BME280;13578;53.450;15.496;2022-08-30T03:44:20;100397.91;;;15.25;100.00
25722;BME280;13578;53.450;15.496;2022-08-30T03:47:20;100403.22;;;15.19;100.00
25722;BME280;13578;53.450;15.496;2022-08-30T03:50:21;100409.75;;;15.18;100.00
25722;BME280;13578;53.450;15.496;2022-08-30T03:53:22;100409.50;;;15.11;100.00
25722;BME280;13578;53.450;15.496;2022-08-30T03:56:23;100410.38;;;15.12;100.00
25722;BME280;13578;53.450;15.496;2022-08-30T03:59:24;100425.84;;;15.04;100.00
25722;BME280;13578;53.450;15.496;2022-08-30T04:02:25;100422.03;;;15.05;100.00
25722;BME280;13578;53.450;15.496;2022-08-30T04:05:26;100420.72;;;15.09;100.00
25722;BME280;13578;53.450;15.496;2022-08-30T04:08:27;100428.69;;;15.13;100.00
25722;BME280;13578;53.450;15.496;2022-08-30T04:11:28;100428.69;;;15.13;100.00
25722;BME280;13578;53.450;15.496;2022-08-30T04:14:28;100429.53;;;15.23;100.00
25722;BME280;13578;53.450;15.496;2022-08-30T04:17:29;100425.63;;;15.16;100.00
25722;BME280;13578;53.450;15.496;2022-08-30T04:20:30;100432.75;;;15.18;100.00
25722;BME280;13578;53.450;15.496;2022-08-30T04:23:30;100427.78;;;15.22;100.00
25722;BME280;13578;53.450;15.496;2022-08-30T04:26:31;100434.03;;;15.24;100.00
25722;BME280;13578;53.450;15.496;2022-08-30T04:29:32;100440.56;;;15.23;100.00
25722;BME280;13578;53.450;15.496;2022-08-30T04:32:34;100442.88;;;15.28;100.00
25722;BME280;13578;53.450;15.496;2022-08-30T04:35:35;100443.06;;;15.26;100.00
25722;BME280;13578;53.450;15.496;2022-08-30T04:38:36;100447.22;;;15.30;100.00
25722;BME280;13578;53.450;15.496;2022-08-30T04:41:37;100447.56;;;15.27;100.00
25722;BME280;13578;53.450;15.496;2022-08-30T04:44:39;100443.19;;;15.24;100.00
25722;BME280;13578;53.450;15.496;2022-08-30T04:47:41;100446.28;;;15.21;100.00
25722;BME280;13578;53.450;15.496;2022-08-30T04:50:42;100445.38;;;15.21;100.00
25722;BME280;13578;53.450;15.496;2022-08-30T04:53:43;100445.50;;;15.29;100.00
25722;BME280;13578;53.450;15.496;2022-08-30T04:56:44;100452.47;;;15.33;100.00
25722;BME280;13578;53.450;15.496;2022-08-30T04:59:44;100452.00;;;15.38;100.00
25722;BME280;13578;53.450;15.496;2022-08-30T05:02:45;100449.66;;;15.43;100.00
25722;BME280;13578;53.450;15.496;2022-08-30T05:05:50;100450.09;;;15.38;100.00
25722;BME280;13578;53.450;15.496;2022-08-30T05:08:51;100452.41;;;15.43;100.00
25722;BME280;13578;53.450;15.496;2022-08-30T05:11:52;100448.28;;;15.47;100.00
25722;BME280;13578;53.450;15.496;2022-08-30T05:14:53;100459.22;;;15.49;100.00
25722;BME280;13578;53.450;15.496;2022-08-30T05:17:53;100455.84;;;15.55;100.00
25722;BME280;13578;53.450;15.496;2022-08-30T05:21:09;100465.88;;;15.56;100.00
25722;BME280;13578;53.450;15.496;2022-08-30T05:24:10;100464.53;;;15.60;100.00
25722;BME280;13578;53.450;15.496;2022-08-30T05:27:11;100460.75;;;15.61;100.00
25722;BME280;13578;53.450;15.496;2022-08-30T05:30:13;100462.16;;;15.65;100.00
25722;BME280;13578;53.450;15.496;2022-08-30T05:33:14;100474.50;;;15.71;100.00
25722;BME280;13578;53.450;15.496;2022-08-30T05:36:16;100473.66;;;15.70;100.00
25722;BME280;13578;53.450;15.496;2022-08-30T05:39:18;100482.19;;;15.77;100.00
25722;BME280;13578;53.450;15.496;2022-08-30T05:42:18;100473.88;;;15.77;100.00
25722;BME280;13578;53.450;15.496;2022-08-30T05:45:19;100477.03;;;15.92;100.00
25722;BME280;13578;53.450;15.496;2022-08-30T05:48:20;100474.97;;;16.12;100.00
25722;BME280;13578;53.450;15.496;2022-08-30T05:51:23;100463.59;;;16.15;100.00
25722;BME280;13578;53.450;15.496;2022-08-30T05:54:24;100471.88;;;16.33;100.00
25722;BME280;13578;53.450;15.496;2022-08-30T05:57:25;100461.91;;;16.41;100.00
25722;BME280;13578;53.450;15.496;2022-08-30T06:00:26;100470.28;;;16.49;100.00
25722;BME280;13578;53.450;15.496;2022-08-30T06:03:29;100471.84;;;16.51;100.00
25722;BME280;13578;53.450;15.496;2022-08-30T06:06:34;100462.03;;;16.57;100.00
25722;BME280;13578;53.450;15.496;2022-08-30T06:09:35;100467.75;;;16.82;100.00
25722;BME280;13578;53.450;15.496;2022-08-30T06:12:36;100469.63;;;16.99;100.00
25722;BME280;13578;53.450;15.496;2022-08-30T06:15:36;100455.84;;;17.16;100.00
25722;BME280;13578;53.450;15.496;2022-08-30T06:18:37;100451.53;;;17.13;100.00
25722;BME280;13578;53.450;15.496;2022-08-30T06:21:39;100447.72;;;17.23;100.00
25722;BME280;13578;53.450;15.496;2022-08-30T06:24:40;100458.19;;;17.37;100.00
25722;BME280;13578;53.450;15.496;2022-08-30T06:27:41;100457.50;;;17.35;100.00
25722;BME280;13578;53.450;15.496;2022-08-30T06:30:42;100454.56;;;17.37;100.00
25722;BME280;13578;53.450;15.496;2022-08-30T06:33:43;100452.16;;;17.42;100.00
25722;BME280;13578;53.450;15.496;2022-08-30T06:36:44;100447.63;;;17.41;100.00
25722;BME280;13578;53.450;15.496;2022-08-30T06:39:44;100449.22;;;17.43;100.00
25722;BME280;13578;53.450;15.496;2022-08-30T06:42:45;100445.91;;;17.48;100.00
25722;BME280;13578;53.450;15.496;2022-08-30T06:45:45;100446.09;;;17.46;100.00
25722;BME280;13578;53.450;15.496;2022-08-30T06:48:46;100446.84;;;17.57;100.00
25722;BME280;13578;53.450;15.496;2022-08-30T06:51:47;100461.44;;;17.67;100.00
25722;BME280;13578;53.450;15.496;2022-08-30T06:54:48;100465.78;;;17.78;100.00
25722;BME280;13578;53.450;15.496;2022-08-30T06:57:49;100464.06;;;17.85;100.00
25722;BME280;13578;53.450;15.496;2022-08-30T07:00:49;100465.81;;;17.86;100.00
25722;BME280;13578;53.450;15.496;2022-08-30T07:03:50;100465.78;;;17.78;100.00
25722;BME280;13578;53.450;15.496;2022-08-30T07:06:51;100476.91;;;17.86;100.00
25722;BME280;13578;53.450;15.496;2022-08-30T07:09:52;100473.25;;;17.69;100.00
25722;BME280;13578;53.450;15.496;2022-08-30T07:12:54;100470.47;;;17.69;100.00
25722;BME280;13578;53.450;15.496;2022-08-30T07:15:55;100471.31;;;17.70;100.00
25722;BME280;13578;53.450;15.496;2022-08-30T07:18:56;100472.91;;;17.72;100.00
25722;BME280;13578;53.450;15.496;2022-08-30T07:21:57;100471.47;;;17.60;100.00
25722;BME280;13578;53.450;15.496;2022-08-30T07:24:58;100469.41;;;17.62;100.00
25722;BME280;13578;53.450;15.496;2022-08-30T07:27:59;100471.50;;;17.68;100.00
25722;BME280;13578;53.450;15.496;2022-08-30T07:31:00;100482.41;;;17.70;100.00
25722;BME280;13578;53.450;15.496;2022-08-30T07:34:02;100480.56;;;17.78;100.00
25722;BME280;13578;53.450;15.496;2022-08-30T07:37:03;100488.69;;;17.72;100.00
25722;BME280;13578;53.450;15.496;2022-08-30T07:40:04;100489.94;;;17.86;100.00
25722;BME280;13578;53.450;15.496;2022-08-30T07:43:05;100489.66;;;17.97;100.00
25722;BME280;13578;53.450;15.496;2022-08-30T07:46:07;100487.41;;;18.01;100.00
25722;BME280;13578;53.450;15.496;2022-08-30T07:49:08;100489.50;;;18.07;100.00
25722;BME280;13578;53.450;15.496;2022-08-30T07:52:08;100484.97;;;17.98;100.00
25722;BME280;13578;53.450;15.496;2022-08-30T07:55:09;100490.41;;;18.24;100.00
25722;BME280;13578;53.450;15.496;2022-08-30T07:58:10;100487.09;;;18.37;100.00
25722;BME280;13578;53.450;15.496;2022-08-30T08:01:11;100493.56;;;18.54;100.00
25722;BME280;13578;53.450;15.496;2022-08-30T08:04:12;100497.88;;;18.32;100.00
25722;BME280;13578;53.450;15.496;2022-08-30T08:07:13;100496.13;;;18.39;100.00
25722;BME280;13578;53.450;15.496;2022-08-30T08:10:14;100497.50;;;18.43;100.00
25722;BME280;13578;53.450;15.496;2022-08-30T08:13:15;100507.97;;;18.41;100.00
25722;BME280;13578;53.450;15.496;2022-08-30T08:16:16;100505.84;;;18.43;100.00
25722;BME280;13578;53.450;15.496;2022-08-30T08:19:16;100505.00;;;18.42;100.00
25722;BME280;13578;53.450;15.496;2022-08-30T08:22:18;100513.84;;;18.38;100.00
25722;BME280;13578;53.450;15.496;2022-08-30T08:25:19;100504.31;;;18.24;100.00
25722;BME280;13578;53.450;15.496;2022-08-30T08:28:21;100514.19;;;18.43;100.00
25722;BME280;13578;53.450;15.496;2022-08-30T08:31:25;100515.06;;;18.35;100.00
25722;BME280;13578;53.450;15.496;2022-08-30T08:34:26;100525.47;;;18.25;100.00
25722;BME280;13578;53.450;15.496;2022-08-30T08:37:26;100529.09;;;18.09;100.00
25722;BME280;13578;53.450;15.496;2022-08-30T08:40:29;100529.09;;;18.17;100.00
25722;BME280;13578;53.450;15.496;2022-08-30T08:43:36;100531.91;;;18.34;100.00
25722;BME280;13578;53.450;15.496;2022-08-30T08:46:55;100528.78;;;18.53;100.00
25722;BME280;13578;53.450;15.496;2022-08-30T08:50:03;100518.91;;;18.76;100.00
25722;BME280;13578;53.450;15.496;2022-08-30T08:53:13;100518.75;;;18.94;100.00
25722;BME280;13578;53.450;15.496;2022-08-30T08:56:34;100521.31;;;18.70;100.00
25722;BME280;13578;53.450;15.496;2022-08-30T08:59:37;100531.72;;;18.27;100.00
25722;BME280;13578;53.450;15.496;2022-08-30T09:02:47;100527.19;;;18.18;100.00
25722;BME280;13578;53.450;15.496;2022-08-30T09:05:53;100527.38;;;18.24;100.00
25722;BME280;13578;53.450;15.496;2022-08-30T09:08:54;100535.03;;;18.39;100.00
25722;BME280;13578;53.450;15.496;2022-08-30T09:11:55;100528.44;;;18.40;100.00
25722;BME280;13578;53.450;15.496;2022-08-30T09:15:11;100537.84;;;18.55;100.00
25722;BME280;13578;53.450;15.496;2022-08-30T09:18:15;100530.38;;;18.72;100.00
25722;BME280;13578;53.450;15.496;2022-08-30T09:21:23;100533.31;;;18.96;100.00
25722;BME280;13578;53.450;15.496;2022-08-30T09:24:25;100526.38;;;19.16;100.00
25722;BME280;13578;53.450;15.496;2022-08-30T09:27:34;100517.81;;;19.26;100.00
25722;BME280;13578;53.450;15.496;2022-08-30T09:30:35;100532.25;;;19.30;100.00
25722;BME280;13578;53.450;15.496;2022-08-30T09:33:36;100526.53;;;19.07;100.00
25722;BME280;13578;53.450;15.496;2022-08-30T09:36:46;100538.53;;;18.82;100.00
25722;BME280;13578;53.450;15.496;2022-08-30T09:39:49;100548.97;;;18.55;100.00
25722;BME280;13578;53.450;15.496;2022-08-30T09:43:18;100540.09;;;18.44;100.00
25722;BME280;13578;53.450;15.496;2022-08-30T09:46:23;100536.94;;;18.47;100.00
25722;BME280;13578;53.450;15.496;2022-08-30T09:49:35;100541.63;;;18.38;100.00
25722;BME280;13578;53.450;15.496;2022-08-30T09:52:59;100554.00;;;18.52;100.00
25722;BME280;13578;53.450;15.496;2022-08-30T09:59:49;100547.00;;;18.39;100.00
25722;BME280;13578;53.450;15.496;2022-08-30T10:06:31;100545.81;;;18.42;100.00
25722;BME280;13578;53.450;15.496;2022-08-30T10:10:09;100537.31;;;18.85;100.00
25722;BME280;13578;53.450;15.496;2022-08-30T10:13:34;100541.63;;;19.37;100.00
25722;BME280;13578;53.450;15.496;2022-08-30T10:19:59;100544.25;;;19.78;100.00
25722;BME280;13578;53.450;15.496;2022-08-30T10:23:10;100536.97;;;19.69;100.00
25722;BME280;13578;53.450;15.496;2022-08-30T10:30:20;100529.09;;;19.25;100.00
25722;BME280;13578;53.450;15.496;2022-08-30T10:33:25;100535.41;;;18.77;100.00
25722;BME280;13578;53.450;15.496;2022-08-30T10:36:34;100539.06;;;18.61;100.00
25722;BME280;13578;53.450;15.496;2022-08-30T10:39:40;100530.03;;;18.76;100.00
25722;BME280;13578;53.450;15.496;2022-08-30T10:42:42;100530.72;;;19.02;100.00
25722;BME280;13578;53.450;15.496;2022-08-30T10:45:45;100530.25;;;19.55;100.00
25722;BME280;13578;53.450;15.496;2022-08-30T10:48:47;100538.97;;;19.83;100.00
25722;BME280;13578;53.450;15.496;2022-08-30T10:52:18;100537.63;;;19.88;100.00
25722;BME280;13578;53.450;15.496;2022-08-30T10:55:32;100543.69;;;19.91;100.00
25722;BME280;13578;53.450;15.496;2022-08-30T10:58:37;100540.63;;;19.70;100.00
25722;BME280;13578;53.450;15.496;2022-08-30T11:15:17;100546.06;;;20.03;100.00
25722;BME280;13578;53.450;15.496;2022-08-30T11:18:19;100546.88;;;19.72;100.00
25722;BME280;13578;53.450;15.496;2022-08-30T11:21:36;100545.78;;;19.81;100.00
25722;BME280;13578;53.450;15.496;2022-08-30T11:25:05;100534.41;;;19.51;100.00
25722;BME280;13578;53.450;15.496;2022-08-30T11:28:06;100524.69;;;19.55;100.00
25722;BME280;13578;53.450;15.496;2022-08-30T11:31:32;100528.88;;;19.91;100.00
25722;BME280;13578;53.450;15.496;2022-08-30T11:37:45;100538.97;;;20.23;100.00
25722;BME280;13578;53.450;15.496;2022-08-30T11:41:07;100536.63;;;19.72;100.00
25722;BME280;13578;53.450;15.496;2022-08-30T11:47:43;100540.28;;;19.64;100.00
25722;BME280;13578;53.450;15.496;2022-08-30T11:51:00;100533.44;;;19.75;100.00
25722;BME280;13578;53.450;15.496;2022-08-30T11:57:40;100536.94;;;20.17;100.00
25722;BME280;13578;53.450;15.496;2022-08-30T12:00:46;100518.97;;;20.20;100.00
25722;BME280;13578;53.450;15.496;2022-08-30T12:07:05;100537.72;;;20.03;100.00
25722;BME280;13578;53.450;15.496;2022-08-30T12:10:21;100545.47;;;19.84;100.00
25722;BME280;13578;53.450;15.496;2022-08-30T12:16:45;100532.91;;;20.20;100.00
25722;BME280;13578;53.450;15.496;2022-08-30T12:20:15;100529.22;;;20.51;100.00
25722;BME280;13578;53.450;15.496;2022-08-30T12:23:33;100533.44;;;20.46;100.00
25722;BME280;13578;53.450;15.496;2022-08-30T12:26:42;100538.31;;;20.21;100.00
25722;BME280;13578;53.450;15.496;2022-08-30T12:29:56;100520.72;;;19.89;100.00
25722;BME280;13578;53.450;15.496;2022-08-30T12:32:58;100525.94;;;19.92;100.00
25722;BME280;13578;53.450;15.496;2022-08-30T12:35:59;100519.66;;;20.22;100.00
25722;BME280;13578;53.450;15.496;2022-08-30T12:39:05;100522.63;;;20.43;100.00
25722;BME280;13578;53.450;15.496;2022-08-30T12:42:22;100525.31;;;20.60;100.00
25722;BME280;13578;53.450;15.496;2022-08-30T12:45:28;100525.00;;;20.31;100.00
25722;BME280;13578;53.450;15.496;2022-08-30T12:48:34;100517.38;;;20.25;100.00
25722;BME280;13578;53.450;15.496;2022-08-30T12:51:39;100511.91;;;20.09;100.00
25722;BME280;13578;53.450;15.496;2022-08-30T12:54:40;100524.06;;;20.62;100.00
25722;BME280;13578;53.450;15.496;2022-08-30T12:58:08;100526.94;;;20.77;100.00
25722;BME280;13578;53.450;15.496;2022-08-30T13:01:31;100522.16;;;20.63;100.00
25722;BME280;13578;53.450;15.496;2022-08-30T13:04:32;100525.81;;;20.63;100.00
25722;BME280;13578;53.450;15.496;2022-08-30T13:07:34;100521.41;;;20.23;100.00
25722;BME280;13578;53.450;15.496;2022-08-30T13:10:35;100526.13;;;20.22;100.00
25722;BME280;13578;53.450;15.496;2022-08-30T13:16:42;100525.97;;;20.15;100.00
25722;BME280;13578;53.450;15.496;2022-08-30T13:19:54;100519.34;;;20.17;100.00
25722;BME280;13578;53.450;15.496;2022-08-30T13:23:09;100512.94;;;19.68;100.00
25722;BME280;13578;53.450;15.496;2022-08-30T13:26:10;100511.78;;;20.02;100.00
25722;BME280;13578;53.450;15.496;2022-08-30T13:29:20;100508.94;;;20.10;100.00
25722;BME280;13578;53.450;15.496;2022-08-30T13:32:21;100513.19;;;20.29;100.00
25722;BME280;13578;53.450;15.496;2022-08-30T13:35:22;100508.75;;;20.35;100.00
25722;BME280;13578;53.450;15.496;2022-08-30T13:38:23;100501.78;;;20.39;100.00
25722;BME280;13578;53.450;15.496;2022-08-30T13:41:24;100511.38;;;20.37;100.00
25722;BME280;13578;53.450;15.496;2022-08-30T13:44:25;100503.94;;;20.29;100.00
25722;BME280;13578;53.450;15.496;2022-08-30T13:47:26;100500.47;;;20.27;100.00
25722;BME280;13578;53.450;15.496;2022-08-30T13:50:26;100495.81;;;19.96;100.00
25722;BME280;13578;53.450;15.496;2022-08-30T13:53:27;100490.81;;;19.75;100.00
25722;BME280;13578;53.450;15.496;2022-08-30T13:56:29;100495.25;;;20.01;100.00
25722;BME280;13578;53.450;15.496;2022-08-30T13:59:31;100489.16;;;20.28;100.00
25722;BME280;13578;53.450;15.496;2022-08-30T14:02:34;100486.22;;;20.22;100.00
25722;BME280;13578;53.450;15.496;2022-08-30T14:05:36;100482.59;;;20.21;100.00
25722;BME280;13578;53.450;15.496;2022-08-30T14:08:38;100491.78;;;20.22;100.00
25722;BME280;13578;53.450;15.496;2022-08-30T14:11:39;100478.75;;;20.22;100.00
25722;BME280;13578;53.450;15.496;2022-08-30T14:14:40;100470.28;;;20.30;100.00
25722;BME280;13578;53.450;15.496;2022-08-30T14:17:41;100476.47;;;20.26;100.00
25722;BME280;13578;53.450;15.496;2022-08-30T14:20:42;100479.97;;;20.20;100.00
25722;BME280;13578;53.450;15.496;2022-08-30T14:23:43;100474.25;;;19.90;100.00
25722;BME280;13578;53.450;15.496;2022-08-30T14:26:47;100482.19;;;20.01;100.00
25722;BME280;13578;53.450;15.496;2022-08-30T14:29:48;100482.22;;;19.93;100.00
25722;BME280;13578;53.450;15.496;2022-08-30T14:32:49;100489.19;;;19.97;100.00
25722;BME280;13578;53.450;15.496;2022-08-30T14:35:49;100478.41;;;19.94;100.00
25722;BME280;13578;53.450;15.496;2022-08-30T14:38:50;100482.13;;;19.86;100.00
25722;BME280;13578;53.450;15.496;2022-08-30T14:41:53;100474.91;;;19.92;100.00
25722;BME280;13578;53.450;15.496;2022-08-30T14:44:54;100475.19;;;20.05;100.00
25722;BME280;13578;53.450;15.496;2022-08-30T14:47:55;100472.59;;;20.04;100.00
25722;BME280;13578;53.450;15.496;2022-08-30T14:50:58;100475.75;;;20.01;99.72
25722;BME280;13578;53.450;15.496;2022-08-30T14:53:58;100469.81;;;20.04;100.00
25722;BME280;13578;53.450;15.496;2022-08-30T14:56:59;100476.63;;;20.01;100.00
25722;BME280;13578;53.450;15.496;2022-08-30T15:00:00;100466.91;;;19.97;99.49
25722;BME280;13578;53.450;15.496;2022-08-30T15:03:00;100470.13;;;19.69;97.70
25722;BME280;13578;53.450;15.496;2022-08-30T15:06:01;100458.84;;;19.71;98.75
25722;BME280;13578;53.450;15.496;2022-08-30T15:09:04;100460.13;;;19.60;96.89
25722;BME280;13578;53.450;15.496;2022-08-30T15:12:05;100457.50;;;19.58;100.00
25722;BME280;13578;53.450;15.496;2022-08-30T15:15:06;100463.34;;;19.72;100.00
25722;BME280;13578;53.450;15.496;2022-08-30T15:18:08;100466.06;;;19.80;100.00
25722;BME280;13578;53.450;15.496;2022-08-30T15:21:09;100459.66;;;19.88;100.00
25722;BME280;13578;53.450;15.496;2022-08-30T15:24:12;100470.34;;;19.99;100.00
25722;BME280;13578;53.450;15.496;2022-08-30T15:27:13;100472.63;;;19.95;100.00
25722;BME280;13578;53.450;15.496;2022-08-30T15:30:14;100466.41;;;19.93;100.00
25722;BME280;13578;53.450;15.496;2022-08-30T15:33:14;100474.94;;;19.83;100.00
25722;BME280;13578;53.450;15.496;2022-08-30T15:36:16;100467.00;;;19.72;100.00
25722;BME280;13578;53.450;15.496;2022-08-30T15:39:17;100475.47;;;19.79;100.00
25722;BME280;13578;53.450;15.496;2022-08-30T15:42:19;100474.22;;;19.50;100.00
25722;BME280;13578;53.450;15.496;2022-08-30T15:45:20;100470.34;;;19.67;100.00
25722;BME280;13578;53.450;15.496;2022-08-30T15:48:21;100477.13;;;19.65;100.00
25722;BME280;13578;53.450;15.496;2022-08-30T15:51:23;100474.16;;;19.66;100.00
25722;BME280;13578;53.450;15.496;2022-08-30T15:54:24;100472.63;;;19.64;100.00
25722;BME280;13578;53.450;15.496;2022-08-30T15:57:24;100475.31;;;19.49;100.00
25722;BME280;13578;53.450;15.496;2022-08-30T16:00:25;100469.59;;;19.42;100.00
25722;BME280;13578;53.450;15.496;2022-08-30T16:03:26;100470.41;;;19.51;100.00
25722;BME280;13578;53.450;15.496;2022-08-30T16:06:30;100464.00;;;19.42;100.00
25722;BME280;13578;53.450;15.496;2022-08-30T16:09:32;100466.13;;;19.32;100.00
25722;BME280;13578;53.450;15.496;2022-08-30T16:12:33;100467.50;;;19.44;100.00
25722;BME280;13578;53.450;15.496;2022-08-30T16:15:33;100469.22;;;19.45;100.00
25722;BME280;13578;53.450;15.496;2022-08-30T16:18:35;100472.38;;;19.34;100.00
25722;BME280;13578;53.450;15.496;2022-08-30T16:21:37;100475.88;;;19.36;100.00
25722;BME280;13578;53.450;15.496;2022-08-30T16:24:39;100463.16;;;19.42;100.00
25722;BME280;13578;53.450;15.496;2022-08-30T16:27:41;100466.50;;;19.29;100.00